createdAt,value
2018-06-24T00:02:00.596Z,98.60
2018-06-24T00:04:28.645Z,98.30
2018-06-24T00:06:56.685Z,98.60
2018-06-24T00:09:24.843Z,98.60
2018-06-24T00:11:52.928Z,98.70
2018-06-24T00:14:21.017Z,99.30
2018-06-24T00:16:49.069Z,99.30
2018-06-24T00:19:17.137Z,99.10
2018-06-24T00:21:45.188Z,99.30
2018-06-24T00:24:13.257Z,99.90
2018-06-24T00:26:41.308Z,99.90
2018-06-24T00:29:09.373Z,99.90
2018-06-24T00:31:37.440Z,99.90
2018-06-24T00:34:05.501Z,99.90
2018-06-24T00:36:33.560Z,99.90
2018-06-24T00:39:01.638Z,99.90
2018-06-24T00:41:29.696Z,99.90
2018-06-24T00:43:57.761Z,99.90
2018-06-24T00:46:25.825Z,99.90
2018-06-24T00:48:53.885Z,99.90
2018-06-24T00:51:21.940Z,99.90
2018-06-24T00:53:50.013Z,99.90
2018-06-24T00:56:18.076Z,99.90
2018-06-24T01:01:13.981Z,99.90
2018-06-24T01:03:42.047Z,99.90
2018-06-24T01:06:10.104Z,99.90
2018-06-24T01:08:38.160Z,99.90
2018-06-24T01:11:06.248Z,99.90
2018-06-24T01:13:34.304Z,99.90
2018-06-24T01:16:02.389Z,99.90
2018-06-24T01:18:30.449Z,99.90
2018-06-24T01:20:58.513Z,99.90
2018-06-24T01:23:26.568Z,99.90
2018-06-24T01:25:54.628Z,99.90
2018-06-24T01:28:22.689Z,99.90
2018-06-24T01:30:50.753Z,99.90
2018-06-24T01:33:18.824Z,99.90
2018-06-24T01:35:46.888Z,99.90
2018-06-24T01:38:14.924Z,99.90
2018-06-24T01:40:42.968Z,99.90
2018-06-24T01:43:11.009Z,99.90
2018-06-24T01:45:39.048Z,99.90
2018-06-24T01:48:07.093Z,99.90
2018-06-24T01:50:35.144Z,99.90
2018-06-24T01:53:03.236Z,99.90
2018-06-24T01:55:31.284Z,99.90
2018-06-24T01:57:59.340Z,99.90
2018-06-24T02:00:27.492Z,99.90
2018-06-24T02:02:55.537Z,99.90
2018-06-24T02:05:23.576Z,99.90
2018-06-24T02:07:51.612Z,99.90
2018-06-24T02:10:19.652Z,99.90
2018-06-24T02:12:47.696Z,99.90
2018-06-24T02:15:15.740Z,99.90
2018-06-24T02:17:43.776Z,99.90
2018-06-24T02:20:11.818Z,99.90
2018-06-24T02:22:39.861Z,99.90
2018-06-24T02:25:07.896Z,99.90
2018-06-24T02:27:35.940Z,99.90
2018-06-24T02:30:04.149Z,99.90
2018-06-24T02:32:32.189Z,99.90
2018-06-24T02:35:00.221Z,99.90
2018-06-24T02:37:28.267Z,99.90
2018-06-24T02:39:56.320Z,99.90
2018-06-24T02:42:24.365Z,99.90
2018-06-24T02:44:52.416Z,99.90
2018-06-24T02:47:20.461Z,99.90
2018-06-24T02:49:48.505Z,99.90
2018-06-24T02:52:16.553Z,99.90
2018-06-24T02:54:44.590Z,99.90
2018-06-24T02:57:12.645Z,99.90
2018-06-24T02:59:40.686Z,99.90
2018-06-24T03:02:08.752Z,99.90
2018-06-24T03:04:36.776Z,99.90
2018-06-24T03:07:04.817Z,99.90
2018-06-24T03:09:32.861Z,99.90
2018-06-24T03:12:00.916Z,99.90
2018-06-24T03:14:28.948Z,99.90
2018-06-24T03:16:56.988Z,99.90
2018-06-24T03:19:25.033Z,99.90
2018-06-24T03:21:53.076Z,99.90
2018-06-24T03:24:21.112Z,99.90
2018-06-24T03:26:49.157Z,99.90
2018-06-24T03:29:17.189Z,99.90
2018-06-24T03:31:45.236Z,99.90
2018-06-24T03:34:13.280Z,99.90
2018-06-24T03:36:41.320Z,99.90
2018-06-24T03:41:38.769Z,99.90
2018-06-24T03:44:07.149Z,99.90
2018-06-24T03:46:35.436Z,99.90
2018-06-24T03:49:03.516Z,99.90
2018-06-24T03:51:31.553Z,99.90
2018-06-24T03:53:59.633Z,99.90
2018-06-24T03:56:28.236Z,99.90
2018-06-24T03:58:56.284Z,99.90
2018-06-24T04:01:24.321Z,99.90
2018-06-24T04:03:52.368Z,99.90
2018-06-24T04:06:20.413Z,99.90
2018-06-24T04:08:48.449Z,99.90
2018-06-24T04:11:16.485Z,99.90
2018-06-24T04:13:44.528Z,99.90
2018-06-24T04:16:12.575Z,99.90
2018-06-24T04:18:43.652Z,99.90
2018-06-24T04:21:13.540Z,99.90
2018-06-24T04:23:42.756Z,99.90
2018-06-24T04:26:11.036Z,99.90
2018-06-24T04:28:39.544Z,99.90
2018-06-24T04:31:08.033Z,99.90
2018-06-24T04:33:36.220Z,99.90
2018-06-24T04:36:04.712Z,99.90
2018-06-24T04:38:32.824Z,99.90
2018-06-24T04:41:01.186Z,99.90
2018-06-24T04:43:29.405Z,99.90
2018-06-24T04:45:57.473Z,99.90
2018-06-24T04:48:25.545Z,99.90
2018-06-24T04:50:53.614Z,99.90
2018-06-24T04:53:21.708Z,99.90
2018-06-24T04:55:49.785Z,99.90
2018-06-24T04:58:17.845Z,99.90
2018-06-24T05:00:45.928Z,99.90
2018-06-24T05:03:14.161Z,99.90
2018-06-24T05:05:42.348Z,99.90
2018-06-24T05:08:10.525Z,99.90
2018-06-24T05:10:38.592Z,99.90
2018-06-24T05:13:06.732Z,99.90
2018-06-24T05:15:34.805Z,99.90
2018-06-24T05:18:02.881Z,99.90
2018-06-24T05:20:30.944Z,99.90
2018-06-24T05:22:59.000Z,99.90
2018-06-24T05:25:27.065Z,99.90
2018-06-24T05:27:55.121Z,99.90
2018-06-24T05:30:23.188Z,99.90
2018-06-24T05:32:51.249Z,99.90
2018-06-24T05:35:19.313Z,99.90
2018-06-24T05:37:47.373Z,99.90
2018-06-24T05:40:15.400Z,99.90
2018-06-24T05:42:43.448Z,99.90
2018-06-24T05:45:11.485Z,99.90
2018-06-24T05:47:39.527Z,99.90
2018-06-24T05:50:07.596Z,99.90
2018-06-24T05:52:35.642Z,99.90
2018-06-24T05:55:03.685Z,99.90
2018-06-24T05:57:31.732Z,99.90
2018-06-24T05:59:59.767Z,99.90
2018-06-24T06:02:27.992Z,99.90
2018-06-24T06:04:56.033Z,99.90
2018-06-24T06:07:24.081Z,99.30
2018-06-24T06:09:52.112Z,99.20
2018-06-24T06:12:20.165Z,99.20
2018-06-24T06:14:48.209Z,99.00
2018-06-24T06:17:16.259Z,99.30
2018-06-24T06:19:44.300Z,98.30
2018-06-24T06:22:12.344Z,98.10
2018-06-24T06:24:40.380Z,97.90
2018-06-24T06:27:08.425Z,97.70
2018-06-24T06:29:36.473Z,96.50
2018-06-24T06:32:04.516Z,96.30
2018-06-24T06:34:32.585Z,95.70
2018-06-24T06:37:00.637Z,94.70
2018-06-24T06:39:28.678Z,94.10
2018-06-24T06:41:56.724Z,93.90
2018-06-24T06:44:24.781Z,94.10
2018-06-24T06:46:52.825Z,94.10
2018-06-24T06:49:20.868Z,93.80
2018-06-24T06:51:48.909Z,92.90
2018-06-24T06:54:16.962Z,93.40
2018-06-24T06:56:45.817Z,93.20
2018-06-24T06:59:14.036Z,93.00
2018-06-24T07:01:42.268Z,92.90
2018-06-24T07:04:10.313Z,93.00
2018-06-24T07:06:38.344Z,93.50
2018-06-24T07:09:08.121Z,93.20
2018-06-24T07:11:36.172Z,93.20
2018-06-24T07:14:04.236Z,92.50
2018-06-24T07:16:32.286Z,92.00
2018-06-24T07:19:00.328Z,91.60
2018-06-24T07:21:28.360Z,91.20
2018-06-24T07:23:56.533Z,91.60
2018-06-24T07:26:24.590Z,92.40
2018-06-24T07:28:52.628Z,92.00
2018-06-24T07:31:20.669Z,92.40
2018-06-24T07:33:48.871Z,91.70
2018-06-24T07:38:44.632Z,91.30
2018-06-24T07:41:12.719Z,91.10
2018-06-24T07:43:40.770Z,88.90
2018-06-24T07:46:08.919Z,90.00
2018-06-24T07:48:36.979Z,91.00
2018-06-24T07:51:05.047Z,91.00
2018-06-24T07:53:33.104Z,90.00
2018-06-24T07:56:01.160Z,90.70
2018-06-24T07:58:29.238Z,90.10
2018-06-24T08:00:57.316Z,90.80
2018-06-24T08:03:25.409Z,91.00
2018-06-24T08:05:53.449Z,91.10
2018-06-24T08:08:21.513Z,90.70
2018-06-24T08:10:49.577Z,91.60
2018-06-24T08:13:17.691Z,91.20
2018-06-24T08:15:45.757Z,91.30
2018-06-24T08:18:13.829Z,90.50
2018-06-24T08:20:41.898Z,89.60
2018-06-24T08:23:09.953Z,90.80
2018-06-24T08:25:38.021Z,90.30
2018-06-24T08:28:06.084Z,87.90
2018-06-24T08:30:34.152Z,87.40
2018-06-24T08:33:02.213Z,87.70
2018-06-24T08:35:30.289Z,89.00
2018-06-24T08:37:58.332Z,86.80
2018-06-24T08:40:26.477Z,88.10
2018-06-24T08:45:22.385Z,86.10
2018-06-24T08:47:50.427Z,86.10
2018-06-24T08:50:18.481Z,86.50
2018-06-24T08:52:46.526Z,83.70
2018-06-24T08:55:14.577Z,82.00
2018-06-24T09:00:10.489Z,82.20
2018-06-24T09:02:38.603Z,81.50
2018-06-24T09:05:06.668Z,79.60
2018-06-24T09:07:34.709Z,80.30
2018-06-24T09:10:02.757Z,80.90
2018-06-24T09:12:31.028Z,78.00
2018-06-24T09:14:59.065Z,80.90
2018-06-24T09:17:27.110Z,75.80
2018-06-24T09:19:55.153Z,71.60
2018-06-24T09:22:23.217Z,74.80
2018-06-24T09:24:51.268Z,78.60
2018-06-24T09:27:19.326Z,75.70
2018-06-24T09:29:47.352Z,73.10
2018-06-24T09:32:15.409Z,70.80
2018-06-24T09:34:43.447Z,73.90
2018-06-24T09:37:11.488Z,74.00
2018-06-24T09:39:39.529Z,71.50
2018-06-24T09:42:07.576Z,73.20
2018-06-24T09:44:35.648Z,73.30
2018-06-24T09:47:03.725Z,74.40
2018-06-24T09:49:31.982Z,73.70
2018-06-24T09:52:00.032Z,74.80
2018-06-24T09:54:28.060Z,76.20
2018-06-24T09:56:56.185Z,76.60
2018-06-24T09:59:24.221Z,76.60
2018-06-24T10:01:52.268Z,76.40
2018-06-24T10:04:20.313Z,78.30
2018-06-24T10:06:48.358Z,77.60
2018-06-24T10:09:16.404Z,78.50
2018-06-24T10:11:44.448Z,78.60
2018-06-24T10:14:12.502Z,78.50
2018-06-24T10:16:40.554Z,77.90
2018-06-24T10:19:08.602Z,79.30
2018-06-24T11:43:34.416Z,78.60
2018-06-24T11:46:02.492Z,71.60
2018-06-24T11:48:30.597Z,71.90
2018-06-24T11:50:58.649Z,73.10
2018-06-24T11:53:26.705Z,72.00
2018-06-24T11:55:55.028Z,69.40
2018-06-24T11:58:23.085Z,71.00
2018-06-24T12:00:51.156Z,70.90
2018-06-24T12:03:19.225Z,71.60
2018-06-24T12:05:47.476Z,73.60
2018-06-24T12:08:15.573Z,70.60
2018-06-24T12:10:43.686Z,65.50
2018-06-24T12:13:11.700Z,71.10
2018-06-24T12:15:39.765Z,64.50
2018-06-24T12:18:07.872Z,62.10
2018-06-24T12:20:35.893Z,61.40
2018-06-24T12:23:03.944Z,63.50
2018-06-24T12:25:31.996Z,60.20
2018-06-24T12:28:00.072Z,62.50
2018-06-24T12:30:28.117Z,60.90
2018-06-24T12:32:56.177Z,60.90
2018-06-24T12:35:24.270Z,63.50
2018-06-24T12:37:52.320Z,65.00
2018-06-24T12:40:25.762Z,65.60
2018-06-24T12:42:53.907Z,65.20
2018-06-24T12:45:21.905Z,62.50
2018-06-24T12:47:49.945Z,61.50
2018-06-24T12:50:17.988Z,60.50
2018-06-24T12:52:46.082Z,64.60
2018-06-24T12:55:14.068Z,61.90
2018-06-24T12:57:42.113Z,62.20
2018-06-24T13:00:10.541Z,62.30
2018-06-24T13:02:38.192Z,62.10
2018-06-24T13:05:06.228Z,65.20
2018-06-24T13:07:34.288Z,64.30
2018-06-24T13:10:02.321Z,65.50
2018-06-24T13:12:30.366Z,64.40
2018-06-24T13:14:58.420Z,64.70
2018-06-24T13:17:26.468Z,64.30
2018-06-24T13:19:54.506Z,62.80
2018-06-24T13:22:22.552Z,63.60
2018-06-24T13:24:50.593Z,63.70
2018-06-24T13:27:18.636Z,63.60
2018-06-24T13:29:46.680Z,63.70
2018-06-24T13:32:14.738Z,63.00
2018-06-24T13:34:42.772Z,62.40
2018-06-24T13:37:10.841Z,62.80
2018-06-24T13:39:38.965Z,61.90
2018-06-24T13:42:07.029Z,63.20
2018-06-24T13:44:35.097Z,63.20
2018-06-24T13:47:03.149Z,61.50
2018-06-24T13:49:31.208Z,64.90
2018-06-24T13:51:59.260Z,64.10
2018-06-24T13:54:27.496Z,62.60
2018-06-24T13:56:55.985Z,62.30
2018-06-24T13:59:24.144Z,58.30
2018-06-24T14:01:52.202Z,59.00
2018-06-24T14:04:20.260Z,58.40
2018-06-24T14:06:48.314Z,57.60
2018-06-24T14:09:16.368Z,56.50
2018-06-24T14:14:12.348Z,57.90
2018-06-24T14:16:40.768Z,58.40
2018-06-24T14:19:08.828Z,58.40
2018-06-24T14:21:36.897Z,58.90
2018-06-24T14:24:05.006Z,58.70
2018-06-24T14:26:33.067Z,58.40
2018-06-24T14:29:01.157Z,57.10
2018-06-24T14:31:29.192Z,57.20
2018-06-24T14:33:57.264Z,56.90
2018-06-24T14:36:25.379Z,57.40
2018-06-24T14:38:53.389Z,57.40
2018-06-24T14:41:21.444Z,56.90
2018-06-24T14:43:49.504Z,57.30
2018-06-24T14:46:17.582Z,56.60
2018-06-24T14:48:45.640Z,56.00
2018-06-24T14:51:13.708Z,55.40
2018-06-24T14:53:41.765Z,57.20
2018-06-24T14:56:09.829Z,57.40
2018-06-24T14:58:37.888Z,58.10
2018-06-24T15:01:05.953Z,57.90
2018-06-24T15:03:34.009Z,58.60
2018-06-24T15:06:02.070Z,59.60
2018-06-24T15:08:30.120Z,58.80
2018-06-24T15:10:58.213Z,58.20
2018-06-24T15:13:26.249Z,58.10
2018-06-24T15:15:54.304Z,59.20
2018-06-24T15:18:22.366Z,58.20
2018-06-24T15:20:50.424Z,58.30
2018-06-24T15:23:18.500Z,58.70
2018-06-24T15:25:46.565Z,58.20
2018-06-24T15:28:14.712Z,58.50
2018-06-24T15:30:42.788Z,58.80
2018-06-24T15:33:10.842Z,58.90
2018-06-24T15:35:38.904Z,59.60
2018-06-24T15:38:06.973Z,61.90
2018-06-24T15:40:35.041Z,60.50
2018-06-24T15:43:09.973Z,59.60
2018-06-24T15:45:38.053Z,59.60
2018-06-24T15:48:06.108Z,60.00
2018-06-24T15:50:34.169Z,59.80
2018-06-24T15:53:02.308Z,61.40
2018-06-24T15:55:30.336Z,61.50
2018-06-24T15:57:58.397Z,62.50
2018-06-24T16:00:26.461Z,64.60
2018-06-24T16:02:54.525Z,63.00
2018-06-24T16:07:51.183Z,63.80
2018-06-24T16:10:18.987Z,59.40
2018-06-24T16:12:47.068Z,59.30
2018-06-24T16:15:15.128Z,62.30
2018-06-24T16:17:43.242Z,62.00
2018-06-24T16:20:11.245Z,61.70
2018-06-24T16:22:39.308Z,60.70
2018-06-24T16:25:07.928Z,61.40
2018-06-24T16:27:35.984Z,62.70
2018-06-24T16:30:04.096Z,61.90
2018-06-24T16:32:32.148Z,63.90
2018-06-24T16:35:00.224Z,64.10
2018-06-24T16:39:56.113Z,66.40
2018-06-24T16:42:24.270Z,64.80
2018-06-24T16:44:52.330Z,66.40
2018-06-24T16:47:20.479Z,66.60
2018-06-24T16:49:48.503Z,67.40
2018-06-24T16:52:16.524Z,67.60
2018-06-24T16:54:44.568Z,67.10
2018-06-24T16:57:12.609Z,68.10
2018-06-24T16:59:40.664Z,67.50
2018-06-24T17:02:08.696Z,66.80
2018-06-24T17:04:36.736Z,69.20
2018-06-24T17:07:04.997Z,67.00
2018-06-24T17:09:33.033Z,67.10
2018-06-24T17:12:01.064Z,67.20
2018-06-24T17:14:29.212Z,70.10
2018-06-24T17:16:57.229Z,68.80
2018-06-24T17:19:25.304Z,69.60
2018-06-24T17:21:53.349Z,69.20
2018-06-24T17:24:21.438Z,70.20
2018-06-24T17:26:49.476Z,70.00
2018-06-24T17:29:17.576Z,68.90
2018-06-24T17:31:45.651Z,71.10
2018-06-24T17:34:13.717Z,69.10
2018-06-24T17:36:41.762Z,69.90
2018-06-24T17:39:11.202Z,72.10
2018-06-24T17:41:39.262Z,71.30
2018-06-24T17:44:07.340Z,71.60
2018-06-24T17:46:35.588Z,69.80
2018-06-24T17:49:03.632Z,69.20
2018-06-24T17:51:31.669Z,70.50
2018-06-24T17:53:59.696Z,71.80
2018-06-24T17:56:28.302Z,71.40
2018-06-24T17:58:56.346Z,71.30
2018-06-24T18:01:25.854Z,72.90
2018-06-24T18:03:53.884Z,73.00
2018-06-24T18:06:21.933Z,71.10
2018-06-24T18:08:49.968Z,70.40
2018-06-24T18:11:18.020Z,72.40
2018-06-24T18:13:47.150Z,72.60
2018-06-24T18:16:15.186Z,71.50
2018-06-24T18:18:45.064Z,71.30
2018-06-24T18:21:13.100Z,71.10
2018-06-24T18:23:41.146Z,71.20
2018-06-24T18:26:09.189Z,71.10
2018-06-24T18:28:43.204Z,71.60
2018-06-24T18:31:11.248Z,71.30
2018-06-24T18:33:41.829Z,71.00
2018-06-24T18:36:09.872Z,71.30
2018-06-24T18:38:37.957Z,71.30
2018-06-24T18:41:05.962Z,71.30
2018-06-24T18:43:34.017Z,71.80
2018-06-24T18:46:02.167Z,72.40
2018-06-24T18:48:30.202Z,71.90
2018-06-24T18:50:58.252Z,72.00
2018-06-24T18:53:28.097Z,74.00
2018-06-24T18:55:56.165Z,73.50
2018-06-24T18:58:24.205Z,72.70
2018-06-24T19:00:52.245Z,73.10
2018-06-24T19:03:20.278Z,72.80
2018-06-24T19:05:48.313Z,72.60
2018-06-24T19:08:16.358Z,73.00
2018-06-24T19:10:44.400Z,73.60
2018-06-24T19:13:12.440Z,73.90
2018-06-24T19:15:40.485Z,73.70
2018-06-24T19:18:08.879Z,74.60
2018-06-24T19:20:36.960Z,73.80
2018-06-24T19:23:05.288Z,74.00
2018-06-24T19:25:33.345Z,74.30
2018-06-24T19:28:01.393Z,74.40
2018-06-24T19:30:29.446Z,74.40
2018-06-24T19:32:57.480Z,74.80
2018-06-24T19:35:25.525Z,74.70
2018-06-24T19:37:53.597Z,74.90
2018-06-24T19:40:21.641Z,75.30
2018-06-24T19:42:49.688Z,75.50
2018-06-24T19:45:17.713Z,75.70
2018-06-24T19:47:45.753Z,76.60
2018-06-24T19:50:13.798Z,76.00
2018-06-24T19:52:41.840Z,75.80
2018-06-24T19:55:09.872Z,76.10
2018-06-24T19:57:37.925Z,76.50
2018-06-24T20:00:05.961Z,76.80
2018-06-24T20:02:33.992Z,76.80
2018-06-24T20:05:02.029Z,77.40
2018-06-24T20:07:30.064Z,77.50
2018-06-24T20:09:58.096Z,77.10
2018-06-24T20:12:26.148Z,77.20
2018-06-24T20:14:54.186Z,77.40
2018-06-24T20:17:22.233Z,77.30
2018-06-24T20:19:50.272Z,77.60
2018-06-24T20:22:18.328Z,77.30
2018-06-24T20:24:46.376Z,78.00
2018-06-24T20:27:14.439Z,78.00
2018-06-24T20:29:42.480Z,78.10
2018-06-24T20:32:10.527Z,78.30
2018-06-24T20:34:38.841Z,78.10
2018-06-24T20:37:06.898Z,78.30
2018-06-24T20:39:35.213Z,78.60
2018-06-24T20:42:03.250Z,78.60
2018-06-24T20:44:31.301Z,79.00
2018-06-24T20:46:59.337Z,79.00
2018-06-24T20:49:27.388Z,79.80
2018-06-24T20:51:55.448Z,79.30
2018-06-24T20:54:23.500Z,79.50
2018-06-24T20:56:51.533Z,79.40
2018-06-24T20:59:19.584Z,79.70
2018-06-24T21:01:47.621Z,79.50
2018-06-24T21:04:15.676Z,80.00
2018-06-24T21:06:43.844Z,80.30
2018-06-24T21:09:12.224Z,81.20
2018-06-24T21:11:40.423Z,81.90
2018-06-24T21:14:08.468Z,82.20
2018-06-24T21:16:36.767Z,80.50
2018-06-24T21:19:04.852Z,80.60
2018-06-24T21:21:32.904Z,80.80
2018-06-24T21:24:00.928Z,80.70
2018-06-24T21:26:29.125Z,80.80
2018-06-24T21:28:57.309Z,80.80
2018-06-24T21:31:25.344Z,81.30
2018-06-24T21:33:53.410Z,81.00
2018-06-24T21:36:21.480Z,81.60
2018-06-24T21:38:49.552Z,81.70
2018-06-24T21:41:17.694Z,81.50
2018-06-24T21:43:45.744Z,81.80
2018-06-24T21:46:13.809Z,82.30
2018-06-24T21:48:41.864Z,82.50
2018-06-24T21:51:09.934Z,82.40
2018-06-24T21:53:38.259Z,83.00
2018-06-24T21:56:06.325Z,83.00
2018-06-24T21:58:34.377Z,82.90
2018-06-24T22:01:02.450Z,83.20
2018-06-24T22:03:30.501Z,83.40
2018-06-24T22:05:58.568Z,83.40
2018-06-24T22:08:26.638Z,83.50
2018-06-24T22:10:54.689Z,84.10
2018-06-24T22:13:22.748Z,84.30
2018-06-24T22:15:50.814Z,84.60
2018-06-24T22:18:18.877Z,84.50
2018-06-24T22:20:47.085Z,84.60
2018-06-24T22:23:15.154Z,84.90
2018-06-24T22:25:43.208Z,84.50
2018-06-24T22:28:11.273Z,85.10
2018-06-24T22:30:39.337Z,84.80
2018-06-24T22:33:07.505Z,84.60
2018-06-24T22:35:35.557Z,84.60
2018-06-24T22:38:03.634Z,84.80
2018-06-24T22:40:31.692Z,85.20
2018-06-24T22:42:59.764Z,85.90
2018-06-24T22:45:27.817Z,85.40
2018-06-24T22:47:55.885Z,85.50
2018-06-24T22:50:23.944Z,85.60
2018-06-24T22:52:52.001Z,86.80
2018-06-24T22:55:20.125Z,86.60
2018-06-24T22:57:48.196Z,86.00
2018-06-24T23:00:17.513Z,86.70
2018-06-24T23:02:46.068Z,86.60
2018-06-24T23:05:14.574Z,86.60
2018-06-24T23:07:43.695Z,86.70
2018-06-24T23:10:12.178Z,86.90
2018-06-24T23:12:40.241Z,87.00
2018-06-24T23:15:09.373Z,87.40
2018-06-24T23:17:37.458Z,87.60
2018-06-24T23:20:05.929Z,87.70
2018-06-24T23:22:34.015Z,87.70
2018-06-24T23:25:02.065Z,87.90
2018-06-24T23:27:30.121Z,88.30
2018-06-24T23:29:58.192Z,88.50
2018-06-24T23:32:26.258Z,88.80
2018-06-24T23:34:54.333Z,89.20
2018-06-24T23:37:22.380Z,89.10
2018-06-24T23:39:50.479Z,89.30
2018-06-24T23:42:18.521Z,89.80
2018-06-24T23:44:46.561Z,89.90
2018-06-24T23:47:14.609Z,89.80
2018-06-24T23:49:42.653Z,89.90
2018-06-24T23:52:10.688Z,90.00
2018-06-24T23:54:38.749Z,90.10
2018-06-24T23:57:06.786Z,90.10
2018-06-24T23:59:34.832Z,90.40
